sensor_id;sensor_type;location;lat;lon;timestamp;temperature;humidity
29237;DHT22;16266;50.866;4.398;2022-09-21T00:01:21;9.50;99.90
29237;DHT22;16266;50.866;4.398;2022-09-21T00:03:52;9.40;99.90
29237;DHT22;16266;50.866;4.398;2022-09-21T00:06:19;9.40;99.90
29237;DHT22;16266;50.866;4.398;2022-09-21T00:08:46;9.40;99.90
29237;DHT22;16266;50.866;4.398;2022-09-21T00:11:13;9.40;99.90
29237;DHT22;16266;50.866;4.398;2022-09-21T00:13:39;9.50;99.90
29237;DHT22;16266;50.866;4.398;2022-09-21T00:16:07;9.60;99.90
29237;DHT22;16266;50.866;4.398;2022-09-21T00:18:32;9.60;99.90
29237;DHT22;16266;50.866;4.398;2022-09-21T00:20:58;9.70;99.90
29237;DHT22;16266;50.866;4.398;2022-09-21T00:23:24;9.80;99.90
29237;DHT22;16266;50.866;4.398;2022-09-21T00:25:50;9.80;99.90
29237;DHT22;16266;50.866;4.398;2022-09-21T00:28:15;9.70;99.90
29237;DHT22;16266;50.866;4.398;2022-09-21T00:30:41;9.70;99.90
29237;DHT22;16266;50.866;4.398;2022-09-21T00:33:07;9.50;99.90
29237;DHT22;16266;50.866;4.398;2022-09-21T00:35:32;9.40;99.90
29237;DHT22;16266;50.866;4.398;2022-09-21T00:38:02;9.40;99.90
29237;DHT22;16266;50.866;4.398;2022-09-21T00:40:28;9.40;99.90
29237;DHT22;16266;50.866;4.398;2022-09-21T00:43:11;9.40;99.90
29237;DHT22;16266;50.866;4.398;2022-09-21T00:45:37;9.30;99.90
29237;DHT22;16266;50.866;4.398;2022-09-21T00:48:03;9.30;99.90
29237;DHT22;16266;50.866;4.398;2022-09-21T00:50:29;9.20;99.90
29237;DHT22;16266;50.866;4.398;2022-09-21T00:52:56;9.20;99.90
29237;DHT22;16266;50.866;4.398;2022-09-21T00:55:29;9.30;99.90
29237;DHT22;16266;50.866;4.398;2022-09-21T00:58:03;9.40;99.90
29237;DHT22;16266;50.866;4.398;2022-09-21T01:00:30;9.40;99.90
29237;DHT22;16266;50.866;4.398;2022-09-21T01:02:56;9.40;99.90
29237;DHT22;16266;50.866;4.398;2022-09-21T01:05:26;9.30;99.90
29237;DHT22;16266;50.866;4.398;2022-09-21T01:07:53;9.20;99.90
29237;DHT22;16266;50.866;4.398;2022-09-21T01:10:21;9.10;99.90
29237;DHT22;16266;50.866;4.398;2022-09-21T01:18:22;9.00;99.90
29237;DHT22;16266;50.866;4.398;2022-09-21T01:24:13;9.10;99.90
29237;DHT22;16266;50.866;4.398;2022-09-21T01:32:04;9.30;99.90
29237;DHT22;16266;50.866;4.398;2022-09-21T01:37:21;9.20;99.90
29237;DHT22;16266;50.866;4.398;2022-09-21T01:39:53;9.10;99.90
29237;DHT22;16266;50.866;4.398;2022-09-21T01:42:20;9.00;99.90
29237;DHT22;16266;50.866;4.398;2022-09-21T01:44:48;9.00;99.90
29237;DHT22;16266;50.866;4.398;2022-09-21T01:47:16;9.10;99.90
29237;DHT22;16266;50.866;4.398;2022-09-21T01:49:49;9.00;99.90
29237;DHT22;16266;50.866;4.398;2022-09-21T01:52:22;9.00;99.90
29237;DHT22;16266;50.866;4.398;2022-09-21T01:54:53;9.00;99.90
29237;DHT22;16266;50.866;4.398;2022-09-21T02:00:10;8.90;99.90
29237;DHT22;16266;50.866;4.398;2022-09-21T02:05:05;8.90;99.90
29237;DHT22;16266;50.866;4.398;2022-09-21T02:07:33;8.90;99.90
29237;DHT22;16266;50.866;4.398;2022-09-21T02:10:00;9.00;99.90
29237;DHT22;16266;50.866;4.398;2022-09-21T02:12:26;9.00;99.90
29237;DHT22;16266;50.866;4.398;2022-09-21T02:14:53;9.10;99.90
29237;DHT22;16266;50.866;4.398;2022-09-21T02:17:46;9.10;99.90
29237;DHT22;16266;50.866;4.398;2022-09-21T02:20:24;9.20;99.90
29237;DHT22;16266;50.866;4.398;2022-09-21T02:23:13;9.20;99.90
29237;DHT22;16266;50.866;4.398;2022-09-21T02:31:15;9.20;99.90
29237;DHT22;16266;50.866;4.398;2022-09-21T02:36:32;9.00;99.90
29237;DHT22;16266;50.866;4.398;2022-09-21T02:39:09;8.90;99.90
29237;DHT22;16266;50.866;4.398;2022-09-21T02:41:45;8.90;99.90
29237;DHT22;16266;50.866;4.398;2022-09-21T02:44:24;9.00;99.90
29237;DHT22;16266;50.866;4.398;2022-09-21T02:47:21;9.00;99.90
29237;DHT22;16266;50.866;4.398;2022-09-21T02:49:52;8.90;99.90
29237;DHT22;16266;50.866;4.398;2022-09-21T02:52:19;8.80;99.90
29237;DHT22;16266;50.866;4.398;2022-09-21T02:54:51;8.90;99.90
29237;DHT22;16266;50.866;4.398;2022-09-21T02:57:20;9.00;99.90
29237;DHT22;16266;50.866;4.398;2022-09-21T02:59:47;8.90;99.90
29237;DHT22;16266;50.866;4.398;2022-09-21T03:02:13;8.80;99.90
29237;DHT22;16266;50.866;4.398;2022-09-21T03:04:40;8.80;99.90
29237;DHT22;16266;50.866;4.398;2022-09-21T03:07:07;8.80;99.90
29237;DHT22;16266;50.866;4.398;2022-09-21T03:09:33;8.80;99.90
29237;DHT22;16266;50.866;4.398;2022-09-21T03:11:58;8.90;99.90
29237;DHT22;16266;50.866;4.398;2022-09-21T03:14:24;8.90;99.90
29237;DHT22;16266;50.866;4.398;2022-09-21T03:16:49;8.80;99.90
29237;DHT22;16266;50.866;4.398;2022-09-21T03:19:15;8.60;99.90
29237;DHT22;16266;50.866;4.398;2022-09-21T03:21:41;8.80;99.90
29237;DHT22;16266;50.866;4.398;2022-09-21T03:24:07;8.80;99.90
29237;DHT22;16266;50.866;4.398;2022-09-21T03:26:32;8.70;99.90
29237;DHT22;16266;50.866;4.398;2022-09-21T03:28:58;8.60;99.90
29237;DHT22;16266;50.866;4.398;2022-09-21T03:31:24;8.60;99.90
29237;DHT22;16266;50.866;4.398;2022-09-21T03:33:49;8.50;99.90
29237;DHT22;16266;50.866;4.398;2022-09-21T03:36:15;8.60;99.90
29237;DHT22;16266;50.866;4.398;2022-09-21T03:38:41;8.80;99.90
29237;DHT22;16266;50.866;4.398;2022-09-21T03:41:07;8.90;99.90
29237;DHT22;16266;50.866;4.398;2022-09-21T03:43:32;8.80;99.90
29237;DHT22;16266;50.866;4.398;2022-09-21T03:45:58;8.80;99.90
29237;DHT22;16266;50.866;4.398;2022-09-21T03:48:24;8.70;99.90
29237;DHT22;16266;50.866;4.398;2022-09-21T03:50:50;8.80;99.90
29237;DHT22;16266;50.866;4.398;2022-09-21T03:53:15;8.90;99.90
29237;DHT22;16266;50.866;4.398;2022-09-21T03:55:42;8.90;99.90
29237;DHT22;16266;50.866;4.398;2022-09-21T03:58:07;8.90;99.90
29237;DHT22;16266;50.866;4.398;2022-09-21T04:00:33;8.90;99.90
29237;DHT22;16266;50.866;4.398;2022-09-21T04:02:59;8.90;99.90
29237;DHT22;16266;50.866;4.398;2022-09-21T04:05:27;8.80;99.90
29237;DHT22;16266;50.866;4.398;2022-09-21T04:07:53;8.80;99.90
29237;DHT22;16266;50.866;4.398;2022-09-21T04:10:21;8.80;99.90
29237;DHT22;16266;50.866;4.398;2022-09-21T04:13:00;8.80;99.90
29237;DHT22;16266;50.866;4.398;2022-09-21T04:15:26;8.80;99.90
29237;DHT22;16266;50.866;4.398;2022-09-21T04:17:52;8.90;99.90
29237;DHT22;16266;50.866;4.398;2022-09-21T04:20:19;8.90;99.90
29237;DHT22;16266;50.866;4.398;2022-09-21T04:22:45;8.90;99.90
29237;DHT22;16266;50.866;4.398;2022-09-21T04:25:12;8.90;99.90
29237;DHT22;16266;50.866;4.398;2022-09-21T04:27:38;8.70;99.90
29237;DHT22;16266;50.866;4.398;2022-09-21T04:30:05;8.60;99.90
29237;DHT22;16266;50.866;4.398;2022-09-21T04:32:31;8.60;99.90
29237;DHT22;16266;50.866;4.398;2022-09-21T04:34:57;8.70;99.90
29237;DHT22;16266;50.866;4.398;2022-09-21T04:37:22;8.60;99.90
29237;DHT22;16266;50.866;4.398;2022-09-21T04:39:48;8.50;99.90
29237;DHT22;16266;50.866;4.398;2022-09-21T04:42:14;8.40;99.90
29237;DHT22;16266;50.866;4.398;2022-09-21T04:44:40;8.50;99.90
29237;DHT22;16266;50.866;4.398;2022-09-21T04:47:05;8.70;99.90
29237;DHT22;16266;50.866;4.398;2022-09-21T04:49:31;8.90;99.90
29237;DHT22;16266;50.866;4.398;2022-09-21T04:51:56;9.00;99.90
29237;DHT22;16266;50.866;4.398;2022-09-21T04:54:22;9.00;99.90
29237;DHT22;16266;50.866;4.398;2022-09-21T04:56:48;9.10;99.90
29237;DHT22;16266;50.866;4.398;2022-09-21T04:59:13;9.00;99.90
29237;DHT22;16266;50.866;4.398;2022-09-21T05:01:39;9.00;99.90
29237;DHT22;16266;50.866;4.398;2022-09-21T05:04:05;8.90;99.90
29237;DHT22;16266;50.866;4.398;2022-09-21T05:06:32;9.00;99.90
29237;DHT22;16266;50.866;4.398;2022-09-21T05:08:58;9.00;99.90
29237;DHT22;16266;50.866;4.398;2022-09-21T05:11:43;8.90;99.90
29237;DHT22;16266;50.866;4.398;2022-09-21T05:14:09;8.80;99.90
29237;DHT22;16266;50.866;4.398;2022-09-21T05:16:35;8.80;99.90
29237;DHT22;16266;50.866;4.398;2022-09-21T05:19:01;8.90;99.90
29237;DHT22;16266;50.866;4.398;2022-09-21T05:21:26;8.90;99.90
29237;DHT22;16266;50.866;4.398;2022-09-21T05:23:53;8.90;99.90
29237;DHT22;16266;50.866;4.398;2022-09-21T05:26:19;8.90;99.90
29237;DHT22;16266;50.866;4.398;2022-09-21T05:28:45;8.90;99.90
29237;DHT22;16266;50.866;4.398;2022-09-21T05:34:02;9.00;99.90
29237;DHT22;16266;50.866;4.398;2022-09-21T05:39:09;9.10;99.90
29237;DHT22;16266;50.866;4.398;2022-09-21T05:41:36;9.30;99.90
29237;DHT22;16266;50.866;4.398;2022-09-21T05:44:02;9.40;99.90
29237;DHT22;16266;50.866;4.398;2022-09-21T05:49:16;9.60;99.90
29237;DHT22;16266;50.866;4.398;2022-09-21T05:55:22;9.70;99.90
29237;DHT22;16266;50.866;4.398;2022-09-21T06:01:08;10.00;99.90
29237;DHT22;16266;50.866;4.398;2022-09-21T06:03:38;10.30;99.90
29237;DHT22;16266;50.866;4.398;2022-09-21T06:06:07;10.80;99.90
29237;DHT22;16266;50.866;4.398;2022-09-21T06:08:33;11.40;99.90
29237;DHT22;16266;50.866;4.398;2022-09-21T06:10:58;12.00;99.90
29237;DHT22;16266;50.866;4.398;2022-09-21T06:13:24;12.40;99.90
29237;DHT22;16266;50.866;4.398;2022-09-21T06:15:50;12.60;99.90
29237;DHT22;16266;50.866;4.398;2022-09-21T06:18:16;12.80;99.90
29237;DHT22;16266;50.866;4.398;2022-09-21T06:20:42;13.10;99.90
29237;DHT22;16266;50.866;4.398;2022-09-21T06:23:10;13.50;99.90
29237;DHT22;16266;50.866;4.398;2022-09-21T06:25:36;14.00;99.90
29237;DHT22;16266;50.866;4.398;2022-09-21T06:28:10;14.50;99.90
29237;DHT22;16266;50.866;4.398;2022-09-21T06:30:37;14.90;99.90
29237;DHT22;16266;50.866;4.398;2022-09-21T06:33:05;15.40;99.90
29237;DHT22;16266;50.866;4.398;2022-09-21T06:35:32;15.90;99.90
29237;DHT22;16266;50.866;4.398;2022-09-21T06:37:59;16.40;99.90
29237;DHT22;16266;50.866;4.398;2022-09-21T06:40:27;17.10;99.90
29237;DHT22;16266;50.866;4.398;2022-09-21T06:42:57;17.90;99.90
29237;DHT22;16266;50.866;4.398;2022-09-21T06:45:23;18.60;99.90
29237;DHT22;16266;50.866;4.398;2022-09-21T06:47:49;19.40;99.90
29237;DHT22;16266;50.866;4.398;2022-09-21T06:50:15;20.00;99.90
29237;DHT22;16266;50.866;4.398;2022-09-21T06:52:40;20.60;99.90
29237;DHT22;16266;50.866;4.398;2022-09-21T06:55:07;21.10;99.90
29237;DHT22;16266;50.866;4.398;2022-09-21T06:57:34;21.50;99.90
29237;DHT22;16266;50.866;4.398;2022-09-21T07:00:01;21.80;99.90
29237;DHT22;16266;50.866;4.398;2022-09-21T07:02:26;21.90;99.90
29237;DHT22;16266;50.866;4.398;2022-09-21T07:04:52;22.00;99.90
29237;DHT22;16266;50.866;4.398;2022-09-21T07:07:17;22.10;99.90
29237;DHT22;16266;50.866;4.398;2022-09-21T07:09:43;22.30;99.90
29237;DHT22;16266;50.866;4.398;2022-09-21T07:12:09;22.60;99.90
29237;DHT22;16266;50.866;4.398;2022-09-21T07:14:36;23.10;99.90
29237;DHT22;16266;50.866;4.398;2022-09-21T07:17:02;23.30;99.90
29237;DHT22;16266;50.866;4.398;2022-09-21T07:19:27;23.50;99.90
29237;DHT22;16266;50.866;4.398;2022-09-21T07:21:53;23.50;99.90
29237;DHT22;16266;50.866;4.398;2022-09-21T07:24:20;23.50;99.90
29237;DHT22;16266;50.866;4.398;2022-09-21T07:26:46;23.50;99.90
29237;DHT22;16266;50.866;4.398;2022-09-21T07:29:12;24.30;99.90
29237;DHT22;16266;50.866;4.398;2022-09-21T07:31:37;24.90;99.00
29237;DHT22;16266;50.866;4.398;2022-09-21T07:34:03;25.70;95.80
29237;DHT22;16266;50.866;4.398;2022-09-21T07:36:29;26.20;92.80
29237;DHT22;16266;50.866;4.398;2022-09-21T07:38:54;26.70;91.20
29237;DHT22;16266;50.866;4.398;2022-09-21T07:41:20;27.60;88.60
29237;DHT22;16266;50.866;4.398;2022-09-21T07:43:45;28.40;85.00
29237;DHT22;16266;50.866;4.398;2022-09-21T07:46:12;28.90;76.80
29237;DHT22;16266;50.866;4.398;2022-09-21T07:48:39;29.30;68.50
29237;DHT22;16266;50.866;4.398;2022-09-21T07:51:07;29.30;63.90
29237;DHT22;16266;50.866;4.398;2022-09-21T07:53:34;29.10;59.90
29237;DHT22;16266;50.866;4.398;2022-09-21T07:56:05;29.00;59.10
29237;DHT22;16266;50.866;4.398;2022-09-21T07:58:31;29.30;59.30
29237;DHT22;16266;50.866;4.398;2022-09-21T08:01:15;29.20;58.40
29237;DHT22;16266;50.866;4.398;2022-09-21T08:03:41;29.60;58.00
29237;DHT22;16266;50.866;4.398;2022-09-21T08:06:07;29.90;57.70
29237;DHT22;16266;50.866;4.398;2022-09-21T08:08:34;30.30;53.70
29237;DHT22;16266;50.866;4.398;2022-09-21T08:11:08;30.70;51.50
29237;DHT22;16266;50.866;4.398;2022-09-21T08:13:36;30.80;50.70
29237;DHT22;16266;50.866;4.398;2022-09-21T08:16:02;31.00;47.80
29237;DHT22;16266;50.866;4.398;2022-09-21T08:18:28;30.80;48.30
29237;DHT22;16266;50.866;4.398;2022-09-21T08:20:59;31.30;49.90
29237;DHT22;16266;50.866;4.398;2022-09-21T08:23:25;31.40;46.40
29237;DHT22;16266;50.866;4.398;2022-09-21T08:26:06;32.20;45.60
29237;DHT22;16266;50.866;4.398;2022-09-21T08:28:33;32.50;41.00
29237;DHT22;16266;50.866;4.398;2022-09-21T08:31:04;32.70;38.60
29237;DHT22;16266;50.866;4.398;2022-09-21T08:33:30;32.80;37.00
29237;DHT22;16266;50.866;4.398;2022-09-21T08:35:58;32.70;36.00
29237;DHT22;16266;50.866;4.398;2022-09-21T08:38:24;32.60;33.80
29237;DHT22;16266;50.866;4.398;2022-09-21T08:40:51;32.40;32.70
29237;DHT22;16266;50.866;4.398;2022-09-21T08:43:30;32.30;34.00
29237;DHT22;16266;50.866;4.398;2022-09-21T08:45:58;32.30;34.10
29237;DHT22;16266;50.866;4.398;2022-09-21T08:48:30;32.10;33.60
29237;DHT22;16266;50.866;4.398;2022-09-21T08:51:04;32.10;36.80
29237;DHT22;16266;50.866;4.398;2022-09-21T08:53:40;32.50;34.30
29237;DHT22;16266;50.866;4.398;2022-09-21T08:56:11;32.60;33.70
29237;DHT22;16266;50.866;4.398;2022-09-21T08:58:38;32.60;30.30
29237;DHT22;16266;50.866;4.398;2022-09-21T09:01:29;32.20;29.30
29237;DHT22;16266;50.866;4.398;2022-09-21T09:17:26;31.90;30.90
29237;DHT22;16266;50.866;4.398;2022-09-21T09:20:02;32.90;29.80
29237;DHT22;16266;50.866;4.398;2022-09-21T09:22:36;32.50;27.90
29237;DHT22;16266;50.866;4.398;2022-09-21T09:25:13;32.60;26.90
29237;DHT22;16266;50.866;4.398;2022-09-21T09:27:42;32.10;26.90
29237;DHT22;16266;50.866;4.398;2022-09-21T09:30:19;32.40;27.30
29237;DHT22;16266;50.866;4.398;2022-09-21T09:33:24;33.30;28.80
29237;DHT22;16266;50.866;4.398;2022-09-21T09:36:01;34.10;27.70
29237;DHT22;16266;50.866;4.398;2022-09-21T09:39:12;33.50;24.90
29237;DHT22;16266;50.866;4.398;2022-09-21T09:49:53;33.20;24.20
29237;DHT22;16266;50.866;4.398;2022-09-21T09:52:22;33.10;24.60
29237;DHT22;16266;50.866;4.398;2022-09-21T09:54:48;33.40;23.30
29237;DHT22;16266;50.866;4.398;2022-09-21T09:57:14;33.40;23.80
29237;DHT22;16266;50.866;4.398;2022-09-21T09:59:53;33.30;25.20
29237;DHT22;16266;50.866;4.398;2022-09-21T10:02:25;32.30;22.80
29237;DHT22;16266;50.866;4.398;2022-09-21T10:05:03;31.50;24.50
29237;DHT22;16266;50.866;4.398;2022-09-21T10:07:38;31.90;24.30
29237;DHT22;16266;50.866;4.398;2022-09-21T10:10:45;32.70;23.50
29237;DHT22;16266;50.866;4.398;2022-09-21T10:13:34;33.50;22.30
29237;DHT22;16266;50.866;4.398;2022-09-21T10:21:09;34.90;20.70
29237;DHT22;16266;50.866;4.398;2022-09-21T10:23:46;35.20;19.40
29237;DHT22;16266;50.866;4.398;2022-09-21T10:26:13;34.00;19.60
29237;DHT22;16266;50.866;4.398;2022-09-21T10:28:55;33.10;21.10
29237;DHT22;16266;50.866;4.398;2022-09-21T10:31:23;32.90;20.50
29237;DHT22;16266;50.866;4.398;2022-09-21T10:34:03;32.70;20.20
29237;DHT22;16266;50.866;4.398;2022-09-21T10:36:34;31.80;20.60
29237;DHT22;16266;50.866;4.398;2022-09-21T10:39:30;31.70;21.40
29237;DHT22;16266;50.866;4.398;2022-09-21T10:42:01;32.40;20.60
29237;DHT22;16266;50.866;4.398;2022-09-21T10:45:03;32.50;20.40
29237;DHT22;16266;50.866;4.398;2022-09-21T10:47:36;32.60;20.40
29237;DHT22;16266;50.866;4.398;2022-09-21T10:50:21;32.40;20.70
29237;DHT22;16266;50.866;4.398;2022-09-21T10:52:47;32.90;19.60
29237;DHT22;16266;50.866;4.398;2022-09-21T10:55:18;32.70;19.60
29237;DHT22;16266;50.866;4.398;2022-09-21T10:57:45;31.80;20.70
29237;DHT22;16266;50.866;4.398;2022-09-21T11:02:49;32.90;19.70
29237;DHT22;16266;50.866;4.398;2022-09-21T11:05:25;32.80;19.50
29237;DHT22;16266;50.866;4.398;2022-09-21T11:08:06;32.80;20.80
29237;DHT22;16266;50.866;4.398;2022-09-21T11:13:32;35.80;18.50
29237;DHT22;16266;50.866;4.398;2022-09-21T11:16:26;34.70;18.10
29237;DHT22;16266;50.866;4.398;2022-09-21T11:19:04;34.30;18.50
29237;DHT22;16266;50.866;4.398;2022-09-21T11:22:05;36.00;18.00
29237;DHT22;16266;50.866;4.398;2022-09-21T11:25:17;33.40;17.00
29237;DHT22;16266;50.866;4.398;2022-09-21T11:27:48;30.30;19.20
29237;DHT22;16266;50.866;4.398;2022-09-21T11:30:18;30.30;21.00
29237;DHT22;16266;50.866;4.398;2022-09-21T11:43:59;31.90;18.50
29237;DHT22;16266;50.866;4.398;2022-09-21T11:51:28;31.50;17.50
29237;DHT22;16266;50.866;4.398;2022-09-21T12:00:07;26.40;22.90
29237;DHT22;16266;50.866;4.398;2022-09-21T12:05:32;29.80;20.30
29237;DHT22;16266;50.866;4.398;2022-09-21T12:22:32;30.60;20.00
29237;DHT22;16266;50.866;4.398;2022-09-21T12:25:11;30.60;19.40
29237;DHT22;16266;50.866;4.398;2022-09-21T12:27:45;30.90;18.50
29237;DHT22;16266;50.866;4.398;2022-09-21T12:30:16;31.20;18.70
29237;DHT22;16266;50.866;4.398;2022-09-21T12:35:25;30.90;19.40
29237;DHT22;16266;50.866;4.398;2022-09-21T12:38:08;30.20;18.30
29237;DHT22;16266;50.866;4.398;2022-09-21T12:40:42;30.50;18.10
29237;DHT22;16266;50.866;4.398;2022-09-21T12:43:22;31.30;17.20
29237;DHT22;16266;50.866;4.398;2022-09-21T12:45:52;31.00;16.50
29237;DHT22;16266;50.866;4.398;2022-09-21T12:48:36;30.00;17.60
29237;DHT22;16266;50.866;4.398;2022-09-21T12:51:11;30.30;18.50
29237;DHT22;16266;50.866;4.398;2022-09-21T12:53:43;29.90;18.30
29237;DHT22;16266;50.866;4.398;2022-09-21T12:56:34;28.60;19.20
29237;DHT22;16266;50.866;4.398;2022-09-21T12:59:11;27.40;20.30
29237;DHT22;16266;50.866;4.398;2022-09-21T13:09:43;29.50;19.20
29237;DHT22;16266;50.866;4.398;2022-09-21T13:12:19;29.70;18.90
29237;DHT22;16266;50.866;4.398;2022-09-21T13:14:49;29.20;19.40
29237;DHT22;16266;50.866;4.398;2022-09-21T13:17:28;29.50;19.40
29237;DHT22;16266;50.866;4.398;2022-09-21T13:20:14;29.60;19.40
29237;DHT22;16266;50.866;4.398;2022-09-21T13:22:41;28.70;19.80
29237;DHT22;16266;50.866;4.398;2022-09-21T13:25:22;27.70;19.90
29237;DHT22;16266;50.866;4.398;2022-09-21T13:30:43;27.00;21.30
29237;DHT22;16266;50.866;4.398;2022-09-21T13:46:51;25.00;24.70
29237;DHT22;16266;50.866;4.398;2022-09-21T13:49:27;24.50;26.50
29237;DHT22;16266;50.866;4.398;2022-09-21T13:54:32;23.50;27.60
29237;DHT22;16266;50.866;4.398;2022-09-21T13:57:00;23.10;28.40
29237;DHT22;16266;50.866;4.398;2022-09-21T13:59:28;22.90;28.40
29237;DHT22;16266;50.866;4.398;2022-09-21T14:01:54;22.80;30.20
29237;DHT22;16266;50.866;4.398;2022-09-21T14:04:26;22.70;29.90
29237;DHT22;16266;50.866;4.398;2022-09-21T14:06:54;22.60;30.00
29237;DHT22;16266;50.866;4.398;2022-09-21T14:09:40;22.20;30.70
29237;DHT22;16266;50.866;4.398;2022-09-21T14:12:11;22.10;31.10
29237;DHT22;16266;50.866;4.398;2022-09-21T14:14:42;21.80;30.80
29237;DHT22;16266;50.866;4.398;2022-09-21T14:17:33;21.80;31.10
29237;DHT22;16266;50.866;4.398;2022-09-21T14:19:59;21.70;33.30
29237;DHT22;16266;50.866;4.398;2022-09-21T14:25:19;21.30;33.90
29237;DHT22;16266;50.866;4.398;2022-09-21T14:27:49;21.00;35.50
29237;DHT22;16266;50.866;4.398;2022-09-21T14:30:24;21.00;35.60
29237;DHT22;16266;50.866;4.398;2022-09-21T14:32:52;20.90;37.10
29237;DHT22;16266;50.866;4.398;2022-09-21T14:35:32;20.90;36.20
29237;DHT22;16266;50.866;4.398;2022-09-21T14:38:04;20.90;35.20
29237;DHT22;16266;50.866;4.398;2022-09-21T14:40:36;21.10;35.70
29237;DHT22;16266;50.866;4.398;2022-09-21T14:43:36;21.30;35.80
29237;DHT22;16266;50.866;4.398;2022-09-21T14:46:26;21.60;34.50
29237;DHT22;16266;50.866;4.398;2022-09-21T14:51:55;21.90;34.10
29237;DHT22;16266;50.866;4.398;2022-09-21T15:00:17;22.20;32.60
29237;DHT22;16266;50.866;4.398;2022-09-21T15:05:47;22.30;33.40
29237;DHT22;16266;50.866;4.398;2022-09-21T15:14:21;21.30;35.00
29237;DHT22;16266;50.866;4.398;2022-09-21T15:16:50;21.00;36.70
29237;DHT22;16266;50.866;4.398;2022-09-21T15:19:34;20.60;37.90
29237;DHT22;16266;50.866;4.398;2022-09-21T15:22:16;20.20;39.10
29237;DHT22;16266;50.866;4.398;2022-09-21T15:24:50;20.00;41.00
29237;DHT22;16266;50.866;4.398;2022-09-21T15:27:18;19.80;42.20
29237;DHT22;16266;50.866;4.398;2022-09-21T15:29:46;19.60;43.30
29237;DHT22;16266;50.866;4.398;2022-09-21T15:32:36;19.50;44.30
29237;DHT22;16266;50.866;4.398;2022-09-21T15:35:06;19.40;45.00
29237;DHT22;16266;50.866;4.398;2022-09-21T15:37:38;19.40;46.10
29237;DHT22;16266;50.866;4.398;2022-09-21T15:40:13;19.20;47.40
29237;DHT22;16266;50.866;4.398;2022-09-21T15:48:10;19.00;49.30
29237;DHT22;16266;50.866;4.398;2022-09-21T15:50:38;18.70;50.40
29237;DHT22;16266;50.866;4.398;2022-09-21T15:53:07;18.60;52.50
29237;DHT22;16266;50.866;4.398;2022-09-21T15:55:39;18.50;53.20
29237;DHT22;16266;50.866;4.398;2022-09-21T15:58:17;18.40;53.90
29237;DHT22;16266;50.866;4.398;2022-09-21T16:00:51;18.30;55.50
29237;DHT22;16266;50.866;4.398;2022-09-21T16:03:21;18.20;55.40
29237;DHT22;16266;50.866;4.398;2022-09-21T16:05:52;18.10;57.50
29237;DHT22;16266;50.866;4.398;2022-09-21T16:08:35;17.90;57.70
29237;DHT22;16266;50.866;4.398;2022-09-21T16:13:39;17.70;61.20
29237;DHT22;16266;50.866;4.398;2022-09-21T16:16:24;17.90;61.30
29237;DHT22;16266;50.866;4.398;2022-09-21T16:18:55;17.60;62.20
29237;DHT22;16266;50.866;4.398;2022-09-21T16:21:27;17.80;62.30
29237;DHT22;16266;50.866;4.398;2022-09-21T16:23:58;17.80;61.80
29237;DHT22;16266;50.866;4.398;2022-09-21T16:26:36;17.70;60.70
29237;DHT22;16266;50.866;4.398;2022-09-21T16:29:22;17.80;62.80
29237;DHT22;16266;50.866;4.398;2022-09-21T16:31:49;17.70;64.30
29237;DHT22;16266;50.866;4.398;2022-09-21T16:34:51;17.70;65.20
29237;DHT22;16266;50.866;4.398;2022-09-21T16:40:08;17.80;66.60
29237;DHT22;16266;50.866;4.398;2022-09-21T16:42:34;17.80;66.40
29237;DHT22;16266;50.866;4.398;2022-09-21T16:45:03;17.70;67.60
29237;DHT22;16266;50.866;4.398;2022-09-21T16:47:36;17.80;68.40
29237;DHT22;16266;50.866;4.398;2022-09-21T16:50:05;17.70;70.40
29237;DHT22;16266;50.866;4.398;2022-09-21T16:52:34;17.50;73.20
29237;DHT22;16266;50.866;4.398;2022-09-21T16:55:00;17.40;76.20
29237;DHT22;16266;50.866;4.398;2022-09-21T16:57:25;17.30;78.90
29237;DHT22;16266;50.866;4.398;2022-09-21T16:59:52;17.10;81.70
29237;DHT22;16266;50.866;4.398;2022-09-21T17:02:17;17.00;82.90
29237;DHT22;16266;50.866;4.398;2022-09-21T17:04:44;16.90;86.40
29237;DHT22;16266;50.866;4.398;2022-09-21T17:07:11;16.60;90.00
29237;DHT22;16266;50.866;4.398;2022-09-21T17:09:42;16.30;91.80
29237;DHT22;16266;50.866;4.398;2022-09-21T17:12:14;16.30;93.10
29237;DHT22;16266;50.866;4.398;2022-09-21T17:14:40;16.40;94.50
29237;DHT22;16266;50.866;4.398;2022-09-21T17:17:20;16.20;96.10
29237;DHT22;16266;50.866;4.398;2022-09-21T17:19:47;15.90;97.30
29237;DHT22;16266;50.866;4.398;2022-09-21T17:22:14;15.90;98.60
29237;DHT22;16266;50.866;4.398;2022-09-21T17:24:48;15.70;99.90
29237;DHT22;16266;50.866;4.398;2022-09-21T17:27:15;15.60;99.90
29237;DHT22;16266;50.866;4.398;2022-09-21T17:29:44;15.50;99.90
29237;DHT22;16266;50.866;4.398;2022-09-21T17:32:18;15.40;99.90
29237;DHT22;16266;50.866;4.398;2022-09-21T17:34:44;15.30;99.90
29237;DHT22;16266;50.866;4.398;2022-09-21T17:37:10;15.30;99.90
29237;DHT22;16266;50.866;4.398;2022-09-21T17:39:36;15.10;99.90
29237;DHT22;16266;50.866;4.398;2022-09-21T17:42:08;15.10;99.90
29237;DHT22;16266;50.866;4.398;2022-09-21T17:47:39;14.80;99.90
29237;DHT22;16266;50.866;4.398;2022-09-21T17:52:36;14.80;99.90
29237;DHT22;16266;50.866;4.398;2022-09-21T17:55:21;14.60;99.90
29237;DHT22;16266;50.866;4.398;2022-09-21T18:03:28;14.30;99.90
29237;DHT22;16266;50.866;4.398;2022-09-21T18:05:55;14.20;99.90
29237;DHT22;16266;50.866;4.398;2022-09-21T18:08:26;14.20;99.90
29237;DHT22;16266;50.866;4.398;2022-09-21T18:19:44;13.90;99.90
29237;DHT22;16266;50.866;4.398;2022-09-21T18:25:15;13.80;99.90
29237;DHT22;16266;50.866;4.398;2022-09-21T18:27:42;13.70;99.90
29237;DHT22;16266;50.866;4.398;2022-09-21T18:30:11;13.70;99.90
29237;DHT22;16266;50.866;4.398;2022-09-21T18:32:56;13.70;99.90
29237;DHT22;16266;50.866;4.398;2022-09-21T18:35:32;13.60;99.90
29237;DHT22;16266;50.866;4.398;2022-09-21T18:38:16;13.50;99.90
29237;DHT22;16266;50.866;4.398;2022-09-21T18:43:56;13.40;99.90
29237;DHT22;16266;50.866;4.398;2022-09-21T18:49:14;13.40;99.90
29237;DHT22;16266;50.866;4.398;2022-09-21T18:51:50;13.40;99.90
29237;DHT22;16266;50.866;4.398;2022-09-21T18:54:20;13.30;99.90
29237;DHT22;16266;50.866;4.398;2022-09-21T18:56:47;13.20;99.90
29237;DHT22;16266;50.866;4.398;2022-09-21T18:59:13;13.20;99.90
29237;DHT22;16266;50.866;4.398;2022-09-21T19:01:40;13.20;99.90
29237;DHT22;16266;50.866;4.398;2022-09-21T19:04:07;13.10;99.90
29237;DHT22;16266;50.866;4.398;2022-09-21T19:06:55;13.00;99.90
29237;DHT22;16266;50.866;4.398;2022-09-21T19:15:13;12.90;99.90
29237;DHT22;16266;50.866;4.398;2022-09-21T19:23:12;12.90;99.90
29237;DHT22;16266;50.866;4.398;2022-09-21T19:25:52;13.00;99.90
29237;DHT22;16266;50.866;4.398;2022-09-21T19:31:10;13.00;99.90
29237;DHT22;16266;50.866;4.398;2022-09-21T19:33:37;12.90;99.90
29237;DHT22;16266;50.866;4.398;2022-09-21T19:36:03;12.90;99.90
29237;DHT22;16266;50.866;4.398;2022-09-21T19:38:29;13.00;99.90
29237;DHT22;16266;50.866;4.398;2022-09-21T19:41:05;13.00;99.90